Meath Environmental Platform

Observations for Trim Patrick St

Time AQI Temp °C Hum % Pres Pa CO μg/m³ H₂S μg/m³ NO μg/m³ NO₂ μg/m³ O₃ μg/m³ SO₂ μg/m³ PM1 μg/m³ PM2.5 μg/m³ PM10 μg/m³
Friday 7 August 2026
23:59 2 15.1 68 34,907 0.1 12.99 2.93 44.69 16.24 0 2.86 7.46 8.21
23:58 2 15.1 68 33,723 0.08 13.92 2.73 48.95 23.76 0.39 2.86 6.71 7.38
23:57 2 15.1 64 32,144 0.09 13.74 1.79 44.24 13.68 0.03 3.71 7.73 8.5
23:56 2 15.1 65 30,038 0.08 14.76 2.22 53.65 30.58 0.16 3.71 8.42 9.26
23:55 2 15.2 68 27,231 0.07 12.21 2.87 47.97 22.07 0.28 4.57 8.91 9.8
23:54 2 15.2 67 23,488 0.07 12.83 2.03 35.6 16.92 0.17 3.71 7.52 8.28
23:53 2 15.2 67 18,496 0.07 14.16 2.49 51.68 26.92 0 3.71 8.28 9.11
23:51 2 15.3 68 5,665 0.07 9.76 2.8 26.72 26.11 0.13 2.86 6.71 7.38
23:50 2 15.3 68 1,391 0.07 11.35 2.32 43.7 17.58 0 3.71 8.17 8.99
23:49 2 15.4 68 110,585 0.06 9.74 2.88 31.75 22.85 0.27 2.86 6.72 7.39
23:48 2 15.4 68 106,485 0.06 10.31 2.66 31.29 21.56 0.12 4.57 8.19 9.01
23:47 2 15.4 67 104,524 0.07 12.68 2.92 46.46 18.53 0.03 2.86 6.78 7.46
23:46 2 15.5 67 100,765 0.05 10.13 2.63 40.82 16.8 0 4.57 7.55 8.31
23:45 2 15.5 68 97,811 0.05 10.68 3.05 30.75 21.23 0.16 3.71 8.21 9.03
23:44 2 15.6 67 94,775 0.05 12.5 2.93 49.2 16.49 0.23 3.71 8.24 9.07
23:43 2 15.6 67 91,758 0.05 10.73 3 40.78 18.15 0 3.71 8.24 9.06
23:41 2 15.7 67 86,791 0.05 10.6 2.98 43.2 16.36 0.45 3.71 8.99 9.88
23:40 2 15.8 66 84,763 0.04 10.34 2.25 27.32 24.03 0.5 2.86 6.11 6.72
23:39 2 15.8 65 83,420 0.03 12.79 2.36 44.58 16.35 0 3.71 9.12 10.03
23:35 2 15.9 64 79,040 0.04 15.25 1.59 53.65 23.11 0.85 3.71 7.7 8.47